ADDS METAR Data INFO
IDs: Format: Raw Decoded Include TAF

Data at: 1207 UTC 21 Jun 2018

KEKS 211155Z AUTO 00000KT 10SM CLR 09/08 A3014 RMK AO2 PWINO
KEKS 211135Z AUTO 22003KT 10SM FEW080 SCT120 11/09 A3013 RMK AO2 PWINO
KEKS 211115Z AUTO 00000KT 10SM SCT075 BKN120 13/09 A3014 RMK AO2 PWINO
KEKS 211055Z AUTO 00000KT 10SM SCT070 SCT120 12/09 A3015 RMK AO2 PWINO
KEKS 211035Z AUTO VRB04KT 10SM FEW075 SCT100 14/08 A3015 RMK AO2 PWINO
KEKS 211015Z AUTO 15008KT 10SM BKN075 OVC090 13/09 A3015 RMK AO2 PWINO
KEKS 210955Z AUTO 13007KT 10SM BKN075 13/09 A3015 RMK AO2 PWINO
KEKS 210935Z AUTO 14003KT 10SM CLR 10/08 A3015 RMK AO2 PWINO
KEKS 210915Z AUTO 13004KT 10SM CLR 10/08 A3015 RMK AO2 PWINO
KEKS 210855Z AUTO 11004KT 10SM CLR 11/09 A3015 RMK AO2 PWINO
KEKS 210835Z AUTO VRB04KT 10SM SCT075 SCT085 11/09 A3015 RMK AO2 PWINO
KEKS 210815Z AUTO 12004KT 10SM BKN070 BKN085 BKN100 12/10 A3016 RMK AO2 PWINO
KEKS 210755Z AUTO 19004KT 10SM OVC070 13/10 A3016 RMK AO2 PWINO
KEKS 210735Z AUTO 22003KT 10SM BKN070 OVC080 14/10 A3016 RMK AO2 PWINO
KEKS 210715Z AUTO 00000KT 10SM FEW048 FEW065 OVC075 14/10 A3016 RMK AO2 PWINO
KEKS 210655Z AUTO 21003KT 10SM FEW025 BKN070 OVC080 14/10 A3015 RMK AO2 PWINO
KEKS 210635Z AUTO 18007KT 10SM FEW046 SCT065 BKN075 14/10 A3017 RMK AO2 PWINO
KEKS 210615Z AUTO 18008KT 10SM BKN070 OVC080 14/10 A3017 RMK AO2 PWINO
KEKS 210555Z AUTO 19010KT 10SM OVC065 14/10 A3017 RMK AO2 PWINO
KEKS 210535Z AUTO 19005KT 10SM BKN060 BKN070 14/10 A3016 RMK AO2 PWINO
KEKS 210515Z AUTO 07004KT 10SM BKN065 BKN075 14/09 A3017 RMK AO2 PWINO
KEKS 210455Z AUTO 17005KT 10SM OVC065 14/10 A3018 RMK AO2 PWINO
KEKS 210435Z AUTO 20007KT 10SM BKN065 OVC070 15/10 A3019 RMK AO2 PWINO
KEKS 210415Z AUTO 20007KT 10SM OVC070 16/10 A3018 RMK AO2 PWINO
KEKS 210355Z AUTO 00000KT 10SM SCT070 OVC100 15/10 A3018 RMK AO2 PWINO
KEKS 210335Z AUTO 15006KT 10SM OVC100 15/09 A3018 RMK AO2 PWINO
KEKS 210315Z AUTO 16006KT 10SM OVC100 16/09 A3018 RMK AO2 PWINO
KEKS 210255Z AUTO 14006KT 10SM FEW080 OVC100 16/10 A3018 RMK AO2 PWINO
KEKS 210235Z AUTO 15008KT 10SM SCT100 17/09 A3018 RMK AO2 PWINO
KEKS 210215Z AUTO 15008KT 10SM SCT080 SCT100 18/09 A3018 RMK AO2 PWINO
KEKS 210155Z AUTO 19008KT 10SM BKN075 OVC085 19/10 A3018 RMK AO2 PWINO
KEKS 210135Z AUTO 19007KT 10SM 19/10 A3018 RMK AO2
KEKS 210115Z AUTO 21007KT M1/4SM HZ BKN060 OVC080 21/08 A3019 RMK AO2
KEKS 210055Z AUTO 21006KT 5SM HZ BKN075 OVC085 21/08 A3019 RMK AO2
KEKS 210035Z AUTO 21006KT 10SM OVC075 20/08 A3019 RMK AO2
KEKS 210015Z AUTO 21007KT 10SM BKN075 BKN085 20/09 A3019 RMK AO2
KEKS 202355Z AUTO 22008KT 10SM BKN080 20/08 A3020 RMK AO2
KEKS 202335Z AUTO 21007KT 10SM FEW075 SCT095 21/08 A3020 RMK AO2
KEKS 202315Z AUTO 22008KT 10SM FEW055 SCT065 BKN090 20/08 A3020 RMK AO2
KEKS 202255Z AUTO VRB04KT 10SM FEW055 SCT065 OVC090 20/07 A3021 RMK AO2
KEKS 202235Z AUTO 00000KT 10SM FEW070 BKN090 20/06 A3021 RMK AO2
KEKS 202215Z AUTO 12004G11KT 10SM FEW090 20/08 A3021 RMK AO2
KEKS 202155Z AUTO 13005KT 10SM FEW090 20/08 A3022 RMK AO2
KEKS 202135Z AUTO VRB04G12KT 10SM SCT060 BKN085 19/08 A3023 RMK AO2
KEKS 202115Z AUTO 00000KT 5SM -DZ FEW036 BKN060 16/09 A3024 RMK AO2
KEKS 202055Z AUTO 27007KT 9SM SCT060 BKN070 BKN085 18/08 A3024 RMK AO2
KEKS 202035Z AUTO 00000KT 10SM FEW060 FEW075 BKN085 19/06 A3023 RMK AO2
KEKS 202015Z AUTO VRB06KT 10SM FEW065 SCT080 20/07 A3023 RMK AO2
KEKS 201955Z AUTO 00000KT 10SM BKN075 19/06 A3024 RMK AO2
KEKS 201935Z AUTO 23004KT 10SM SCT060 OVC070 18/07 A3024 RMK AO2
KEKS 201915Z AUTO 00000KT 10SM BKN065 18/07 A3024 RMK AO2
KEKS 201855Z AUTO 18005KT 10SM CLR 18/07 A3024 RMK AO2
KEKS 201835Z AUTO VRB04KT 10SM FEW070 17/08 A3024 RMK AO2
KEKS 201815Z AUTO 23007KT 10SM SCT070 17/08 A3025 RMK AO2
KEKS 201755Z AUTO 26004KT 10SM CLR 16/08 A3026 RMK AO2
KEKS 201735Z AUTO 00000KT 10SM FEW070 16/08 A3026 RMK AO2
KEKS 201715Z AUTO 21005KT 10SM SCT070 15/08 A3027 RMK AO2
KEKS 201655Z AUTO 00000KT 10SM BKN070 14/07 A3027 RMK AO2
KEKS 201635Z AUTO 15004KT 10SM OVC070 13/08 A3028 RMK AO2
KEKS 201615Z AUTO 18005KT 10SM OVC065 12/08 A3029 RMK AO2
KEKS 201555Z AUTO VRB04KT 10SM OVC065 12/08 A3029 RMK AO2
KEKS 201535Z AUTO 00000KT 10SM OVC065 12/08 A3029 RMK AO2
KEKS 201515Z AUTO 00000KT 10SM OVC065 11/09 A3029 RMK AO2
KEKS 201455Z AUTO 00000KT 10SM OVC065 11/08 A3029 RMK AO2
KEKS 201435Z AUTO 00000KT 10SM OVC065 10/08 A3029 RMK AO2
KEKS 201415Z AUTO 00000KT 10SM OVC065 09/07 A3029 RMK AO2
KEKS 201355Z AUTO 27004KT 10SM OVC065 09/08 A3028 RMK AO2
KEKS 201335Z AUTO 00000KT 10SM OVC065 09/07 A3028 RMK AO2
KEKS 201315Z AUTO 00000KT 10SM OVC065 09/08 A3028 RMK AO2
KEKS 201255Z AUTO 10003KT 10SM OVC065 09/07 A3028 RMK AO2
KEKS 201235Z AUTO 00000KT 10SM OVC065 07/06 A3029 RMK AO2
KEKS 201215Z AUTO 00000KT 10SM OVC065 06/06 A3029 RMK AO2
KEKS 201155Z AUTO 00000KT 10SM OVC065 06/05 A3029 RMK AO2
KEKS 201135Z AUTO 00000KT 10SM FEW035 OVC065 06/06 A3029 RMK AO2
KEKS 201115Z AUTO 08005KT 10SM OVC035 07/06 A3028 RMK AO2
KEKS 201055Z AUTO 08003KT 10SM BKN036 BKN065 05/05 A3028 RMK AO2
KEKS 201035Z AUTO 00000KT 10SM FEW037 SCT065 05/04 A3028 RMK AO2
KEKS 201015Z AUTO 00000KT 10SM FEW010 SCT037 SCT065 04/03 A3028 RMK AO2
KEKS 200955Z AUTO 00000KT 10SM FEW010 05/04 A3028 RMK AO2
KEKS 200935Z AUTO 07005KT 10SM CLR 05/04 A3028 RMK AO2
KEKS 200915Z AUTO 06005KT 10SM FEW070 05/05 A3028 RMK AO2
KEKS 200855Z AUTO 07004KT 10SM CLR 05/05 A3027 RMK AO2
KEKS 200835Z AUTO 00000KT 10SM CLR 05/05 A3028 RMK AO2
KEKS 200815Z AUTO 13004KT 10SM CLR 05/05 A3027 RMK AO2
KEKS 200755Z AUTO 10003KT 10SM CLR 05/05 A3028 RMK AO2
KEKS 200735Z AUTO 11004KT 10SM CLR 06/05 A3028 RMK AO2
KEKS 200715Z AUTO 13004KT 10SM FEW011 07/06 A3028 RMK AO2
KEKS 200655Z AUTO 15005KT 10SM FEW011 SCT065 07/06 A3028 RMK AO2
KEKS 200635Z AUTO 00000KT 10SM OVC065 07/07 A3029 RMK AO2
KEKS 200615Z AUTO 00000KT 10SM OVC065 09/08 A3029 RMK AO2
KEKS 200555Z AUTO 00000KT 10SM OVC065 09/08 A3029 RMK AO2
KEKS 200535Z AUTO 00000KT 10SM OVC065 10/09 A3029 RMK AO2
KEKS 200515Z AUTO 00000KT 10SM OVC060 10/08 A3029 RMK AO2
KEKS 200455Z AUTO 04005KT 10SM BKN055 OVC065 10/08 A3029 RMK AO2
KEKS 200435Z AUTO 04006KT 10SM FEW055 OVC065 10/08 A3029 RMK AO2
KEKS 200415Z AUTO 05007KT 10SM BKN050 OVC065 09/08 A3029 RMK AO2
KEKS 200355Z AUTO 03007KT 10SM OVC055 09/08 A3028 RMK AO2
KEKS 200335Z AUTO 03006KT 10SM BKN060 BKN075 BKN100 09/08 A3027 RMK AO2
KEKS 200315Z AUTO 04006KT 10SM BKN060 BKN070 BKN110 10/08 A3026 RMK AO2
KEKS 200255Z AUTO 02004KT 10SM BKN055 BKN070 11/09 A3026 RMK AO2
KEKS 200235Z AUTO 35005KT 10SM FEW018 SCT055 BKN070 11/09 A3026 RMK AO2
KEKS 200215Z AUTO 33004KT 10SM FEW018 FEW042 BKN065 12/09 A3025 RMK AO2
KEKS 200155Z AUTO 35004KT 10SM BKN041 BKN047 BKN065 13/08 A3024 RMK AO2
KEKS 200135Z AUTO 34004KT 10SM OVC047 13/08 A3024 RMK AO2
KEKS 200115Z AUTO 00000KT 10SM BKN049 OVC055 13/08 A3024 RMK AO2
KEKS 200055Z AUTO 00000KT 10SM BKN050 OVC065 13/08 A3024 RMK AO2
KEKS 200035Z AUTO 00000KT 10SM BKN055 OVC065 13/08 A3024 RMK AO2
KEKS 200015Z AUTO 00000KT 10SM BKN055 BKN065 13/08 A3024 RMK AO2